Карточка аэропорта UAKK

Внимание!
Информация на этой странице в стадии наполнения.
Если вы не увидели какой-то информации, или заметили неточность - пожалуйста сообщите нам!
Спасибо!
Команда RU-STAFF
Название аэропортаКараганда
Название аэропорта (англ.)Karaganda
Превышение1768 ft. (538.9 m.)
Координаты49°40.302', 73°20.118'
Высота перехода10000ft
Эшелон переходаFL120, QNH<733:FL130
Коды ответчика0630-0637, 7220-7227
Зона ОрВДАстана РПИ (UACN)
Данные METARUAKK 252100Z 09002MPS 070V170 CAVOK 08/06 Q1008 NOSIG RMK QFE709/0946
Проноз погоды (TAF)UAKK 251701Z 2518/2618 VRB01MPS 9999 SCT040 TX31/2610Z TN12/2524Z TEMPO 2518/2522 18003MPS TEMPO 2522/2603 14003MPS BECMG 2603/2605 23004MPS TEMPO 2605/2615 27004MPS BECMG 2615/2617 VRB01MPS
NOTAMshow/hide NOTAM
AWOS   TABLE

Информация о ВПП

ВПП Длина ВПП (м.) Покрытие Курс ВПП Частота ILS
233601Железобетон230111.7
053601Железобетон50109.9

Диспетчерские позиции




Спутниковое изображение